createdAt,value
2019-04-27T00:01:58.860Z,94.40
2019-04-27T00:04:48.717Z,93.00
2019-04-27T00:07:43.834Z,93.10
2019-04-27T00:10:26.944Z,91.90
2019-04-27T00:12:57.329Z,91.90
2019-04-27T00:15:48.280Z,92.90
2019-04-27T00:18:29.132Z,90.80
2019-04-27T00:21:11.637Z,91.30
2019-04-27T00:23:42.972Z,92.00
2019-04-27T00:26:13.415Z,92.20
2019-04-27T00:28:43.623Z,91.80
2019-04-27T00:31:13.937Z,92.20
2019-04-27T00:33:44.176Z,91.40
2019-04-27T00:36:23.180Z,91.20
2019-04-27T00:39:03.535Z,92.10
2019-04-27T00:41:34.350Z,91.50
2019-04-27T00:44:05.112Z,94.90
2019-04-27T00:46:35.295Z,92.30
2019-04-27T00:49:05.556Z,92.10
2019-04-27T00:51:35.763Z,90.60
2019-04-27T00:54:06.072Z,91.90
2019-04-27T00:56:59.405Z,93.80
2019-04-27T00:59:57.906Z,93.70
2019-04-27T01:02:47.218Z,92.10
2019-04-27T01:05:23.168Z,92.90
2019-04-27T01:07:53.743Z,92.90
2019-04-27T01:10:24.124Z,92.60
2019-04-27T01:12:54.326Z,92.20
2019-04-27T01:15:24.754Z,92.30
2019-04-27T01:18:07.125Z,92.70
2019-04-27T01:20:28.413Z,90.90
2019-04-27T01:22:59.425Z,90.90
2019-04-27T01:25:41.418Z,90.80
2019-04-27T01:28:31.743Z,90.90
2019-04-27T01:31:06.016Z,92.00
2019-04-27T01:33:36.347Z,90.80
2019-04-27T01:36:06.645Z,91.70
2019-04-27T01:38:37.041Z,94.80
2019-04-27T01:41:08.992Z,90.90
2019-04-27T01:43:39.364Z,95.10
2019-04-27T01:46:09.586Z,91.40
2019-04-27T01:48:39.978Z,92.70
2019-04-27T01:51:10.393Z,91.20
2019-04-27T01:53:40.507Z,90.90
2019-04-27T01:56:10.820Z,91.00
2019-04-27T01:58:41.101Z,89.70
2019-04-27T02:01:28.720Z,90.60
2019-04-27T02:04:14.364Z,92.40
2019-04-27T02:06:46.533Z,91.20
2019-04-27T02:09:18.879Z,90.40
2019-04-27T02:11:49.251Z,90.90
2019-04-27T02:14:19.695Z,92.80
2019-04-27T02:16:50.218Z,90.40
2019-04-27T02:19:20.419Z,90.30
2019-04-27T02:21:51.548Z,90.20
2019-04-27T02:24:22.066Z,91.90
2019-04-27T02:26:52.388Z,91.60
2019-04-27T02:29:44.654Z,92.10
2019-04-27T02:32:29.022Z,90.50
2019-04-27T02:35:09.113Z,90.50
2019-04-27T02:37:40.342Z,91.20
2019-04-27T02:40:49.443Z,90.60
2019-04-27T02:43:21.168Z,93.00
2019-04-27T02:45:51.388Z,91.40
2019-04-27T02:48:21.614Z,91.00
2019-04-27T02:50:53.903Z,90.20
2019-04-27T02:53:43.130Z,92.30
2019-04-27T02:56:13.599Z,91.90
2019-04-27T02:58:43.826Z,91.40
2019-04-27T03:01:14.142Z,90.90
2019-04-27T03:03:44.431Z,93.30
2019-04-27T03:06:14.627Z,92.00
2019-04-27T03:08:44.923Z,91.30
2019-04-27T03:11:15.209Z,91.70
2019-04-27T03:14:27.959Z,91.60
2019-04-27T03:17:10.675Z,91.00
2019-04-27T03:19:59.754Z,90.50
2019-04-27T03:22:45.319Z,94.20
2019-04-27T03:25:22.746Z,90.50
2019-04-27T03:27:55.262Z,90.20
2019-04-27T03:30:25.520Z,91.40
2019-04-27T03:32:57.258Z,90.50
2019-04-27T03:35:35.025Z,93.10
2019-04-27T03:38:00.635Z,91.20
2019-04-27T03:40:31.080Z,90.80
2019-04-27T03:43:06.064Z,91.40
2019-04-27T03:45:36.376Z,92.20
2019-04-27T03:48:06.685Z,91.30
2019-04-27T03:50:43.136Z,93.40
2019-04-27T03:53:23.194Z,91.60
2019-04-27T03:55:56.670Z,92.20
2019-04-27T03:58:35.945Z,93.30
2019-04-27T04:01:06.255Z,91.30
2019-04-27T04:03:36.578Z,89.50
2019-04-27T04:06:06.880Z,91.50
2019-04-27T04:08:39.487Z,90.80
2019-04-27T04:11:19.803Z,91.10
2019-04-27T04:13:54.730Z,91.10
2019-04-27T04:16:42.255Z,91.40
2019-04-27T04:19:12.522Z,90.80
2019-04-27T04:21:42.819Z,90.60
2019-04-27T04:24:13.110Z,94.40
2019-04-27T04:26:43.491Z,93.40
2019-04-27T04:29:13.785Z,94.50
2019-04-27T04:31:44.090Z,95.70
2019-04-27T04:34:14.479Z,94.20
2019-04-27T04:36:44.666Z,92.50
2019-04-27T04:39:14.933Z,93.00
2019-04-27T04:42:04.188Z,90.90
2019-04-27T04:44:56.097Z,94.20
2019-04-27T04:47:43.970Z,94.60
2019-04-27T04:50:15.393Z,92.60
2019-04-27T04:52:45.864Z,91.50
2019-04-27T04:55:16.132Z,92.70
2019-04-27T04:57:46.432Z,93.00
2019-04-27T05:00:16.756Z,98.00
2019-04-27T05:02:47.014Z,95.30
2019-04-27T05:05:17.237Z,94.90
2019-04-27T05:07:48.609Z,93.60
2019-04-27T05:10:19.000Z,93.10
2019-04-27T05:12:50.440Z,94.30
2019-04-27T05:15:20.870Z,97.20
2019-04-27T05:17:51.272Z,94.60
2019-04-27T05:20:45.524Z,98.00
2019-04-27T05:23:15.878Z,94.10
2019-04-27T05:25:46.124Z,97.20
2019-04-27T05:28:16.464Z,97.60
2019-04-27T05:30:46.642Z,93.10
2019-04-27T05:33:18.495Z,93.60
2019-04-27T05:35:49.419Z,92.50
2019-04-27T05:38:19.816Z,93.80
2019-04-27T05:40:50.122Z,94.50
2019-04-27T05:43:25.648Z,95.30
2019-04-27T05:46:36.641Z,93.20
2019-04-27T05:49:09.639Z,94.60
2019-04-27T05:51:41.878Z,94.10
2019-04-27T05:54:11.934Z,93.70
2019-04-27T05:56:42.149Z,92.60
2019-04-27T05:59:14.725Z,94.00
2019-04-27T06:01:44.374Z,96.00
2019-04-27T06:04:14.622Z,94.30
2019-04-27T06:06:44.873Z,93.20
2019-04-27T06:09:15.181Z,92.80
2019-04-27T06:11:45.376Z,94.50
2019-04-27T06:14:15.645Z,92.20
2019-04-27T06:16:45.849Z,93.00
2019-04-27T06:19:16.139Z,94.60
2019-04-27T06:21:46.445Z,98.80
2019-04-27T06:24:18.572Z,99.90
2019-04-27T06:26:49.768Z,99.90
2019-04-27T06:29:20.935Z,95.90
2019-04-27T06:31:51.254Z,94.80
2019-04-27T06:34:21.533Z,97.70
2019-04-27T06:36:51.728Z,97.00
2019-04-27T06:39:22.033Z,92.90
2019-04-27T06:41:52.286Z,96.70
2019-04-27T06:44:22.600Z,95.20
2019-04-27T06:46:52.754Z,94.20
2019-04-27T06:49:23.107Z,93.90
2019-04-27T06:51:53.448Z,95.10
2019-04-27T06:54:23.645Z,93.20
2019-04-27T06:56:53.820Z,97.40
2019-04-27T06:59:24.060Z,94.90
2019-04-27T07:01:54.395Z,96.50
2019-04-27T07:04:24.694Z,95.20
2019-04-27T07:06:56.182Z,95.00
2019-04-27T07:09:26.571Z,95.30
2019-04-27T07:11:56.945Z,99.00
2019-04-27T07:14:27.222Z,98.90
2019-04-27T07:16:59.113Z,99.40
2019-04-27T07:19:30.648Z,95.00
2019-04-27T07:22:00.858Z,97.10
2019-04-27T07:24:31.138Z,99.00
2019-04-27T07:27:01.362Z,99.80
2019-04-27T07:29:31.544Z,96.50
2019-04-27T07:32:02.062Z,94.70
2019-04-27T07:34:32.428Z,97.80
2019-04-27T07:37:02.681Z,98.70
2019-04-27T07:39:33.845Z,96.60
2019-04-27T07:42:04.165Z,98.20
2019-04-27T07:44:47.883Z,95.90
2019-04-27T07:47:26.260Z,94.80
2019-04-27T07:49:56.600Z,94.60
2019-04-27T07:52:28.611Z,94.20
2019-04-27T07:54:59.140Z,95.30
2019-04-27T07:57:29.566Z,95.50
2019-04-27T07:59:59.864Z,94.70
2019-04-27T08:02:30.132Z,94.90
2019-04-27T08:05:00.455Z,95.10
2019-04-27T08:07:30.599Z,94.70
2019-04-27T08:10:01.614Z,95.00
2019-04-27T08:12:32.164Z,95.10
2019-04-27T08:15:02.489Z,95.40
2019-04-27T08:17:32.619Z,96.10
2019-04-27T08:20:03.254Z,96.70
2019-04-27T08:22:33.403Z,97.10
2019-04-27T08:25:03.584Z,96.50
2019-04-27T08:27:52.863Z,97.30
2019-04-27T08:30:41.429Z,96.30
2019-04-27T08:33:11.822Z,94.10
2019-04-27T08:35:42.097Z,94.20
2019-04-27T08:38:12.465Z,97.00
2019-04-27T08:40:42.736Z,95.30
2019-04-27T08:43:13.089Z,94.70
2019-04-27T08:45:43.288Z,94.00
2019-04-27T08:48:13.610Z,93.60
2019-04-27T08:50:43.793Z,93.60
2019-04-27T08:53:14.130Z,93.40
2019-04-27T08:55:44.325Z,92.90
2019-04-27T08:58:14.564Z,92.20
2019-04-27T09:00:44.894Z,94.40
2019-04-27T09:03:15.171Z,94.10
2019-04-27T09:05:45.362Z,93.60
2019-04-27T09:08:23.501Z,94.10
2019-04-27T09:11:12.029Z,94.80
2019-04-27T09:13:54.378Z,95.40
2019-04-27T09:16:30.899Z,94.90
2019-04-27T09:19:05.651Z,93.50
2019-04-27T09:21:53.502Z,94.90
2019-04-27T09:24:23.714Z,94.00
2019-04-27T09:26:53.931Z,94.80
2019-04-27T09:29:24.228Z,94.20
2019-04-27T09:31:54.462Z,94.20
2019-04-27T09:34:26.090Z,93.50
2019-04-27T09:36:56.706Z,93.30
2019-04-27T09:39:27.065Z,93.20
2019-04-27T09:41:57.369Z,93.00
2019-04-27T09:44:27.702Z,92.80
2019-04-27T09:46:57.959Z,92.70
2019-04-27T09:49:28.253Z,91.70
2019-04-27T09:51:58.422Z,90.90
2019-04-27T09:54:28.830Z,91.40
2019-04-27T09:56:59.149Z,90.20
2019-04-27T09:59:29.466Z,90.70
2019-04-27T10:01:59.859Z,90.50
2019-04-27T10:04:30.179Z,88.20
2019-04-27T10:07:00.554Z,90.60
2019-04-27T10:09:31.437Z,88.70
2019-04-27T10:12:01.634Z,87.80
2019-04-27T10:14:31.877Z,87.80
2019-04-27T10:17:02.195Z,84.30
2019-04-27T10:19:33.230Z,83.40
2019-04-27T10:22:05.656Z,83.00
2019-04-27T10:24:35.918Z,84.40
2019-04-27T10:27:07.853Z,86.50
2019-04-27T10:29:38.343Z,85.90
2019-04-27T10:32:08.615Z,85.70
2019-04-27T10:34:38.951Z,85.00
2019-04-27T10:37:09.160Z,85.70
2019-04-27T10:39:39.489Z,84.80
2019-04-27T10:42:09.851Z,84.90
2019-04-27T10:44:40.166Z,84.50
2019-04-27T10:47:10.407Z,84.50
2019-04-27T10:49:40.746Z,84.60
2019-04-27T10:52:10.936Z,86.10
2019-04-27T10:54:41.326Z,86.80
2019-04-27T10:57:11.551Z,84.90
2019-04-27T10:59:41.929Z,85.80
2019-04-27T11:02:12.235Z,85.30
2019-04-27T11:04:51.656Z,85.20
2019-04-27T11:07:25.940Z,81.70
2019-04-27T11:09:56.363Z,84.30
2019-04-27T11:12:26.658Z,85.20
2019-04-27T11:14:56.891Z,84.10
2019-04-27T11:17:27.482Z,84.80
2019-04-27T11:19:57.792Z,82.00
2019-04-27T11:22:28.141Z,84.00
2019-04-27T11:24:58.713Z,88.10
2019-04-27T11:27:28.953Z,86.80
2019-04-27T11:29:59.117Z,85.00
2019-04-27T11:32:29.389Z,86.80
2019-04-27T11:35:18.914Z,85.40
2019-04-27T11:37:49.594Z,89.70
2019-04-27T11:40:21.168Z,90.10
2019-04-27T11:42:51.413Z,89.00
2019-04-27T11:45:21.819Z,87.40
2019-04-27T11:47:52.013Z,82.30
2019-04-27T11:50:22.297Z,81.80
2019-04-27T11:52:52.495Z,75.30
2019-04-27T11:55:23.074Z,78.90
2019-04-27T11:57:53.511Z,79.00
2019-04-27T12:00:24.746Z,77.50
2019-04-27T12:02:56.741Z,80.30
2019-04-27T12:05:26.996Z,78.70
2019-04-27T12:07:57.270Z,79.80
2019-04-27T12:10:27.465Z,77.70
2019-04-27T12:12:57.839Z,79.60
2019-04-27T12:15:28.030Z,80.10
2019-04-27T12:17:58.349Z,81.10
2019-04-27T12:20:28.695Z,82.60
2019-04-27T12:22:58.967Z,79.30
2019-04-27T12:25:29.306Z,79.80
2019-04-27T12:28:09.265Z,80.00
2019-04-27T12:31:01.030Z,80.70
2019-04-27T12:33:31.319Z,80.70
2019-04-27T12:36:01.596Z,79.70
2019-04-27T12:38:31.917Z,77.80
2019-04-27T12:41:02.258Z,79.30
2019-04-27T12:43:32.607Z,78.50
2019-04-27T12:46:03.213Z,79.40
2019-04-27T12:48:33.396Z,80.40
2019-04-27T12:51:03.686Z,82.80
2019-04-27T12:53:52.807Z,84.60
2019-04-27T12:56:38.774Z,84.60
2019-04-27T12:59:20.162Z,86.60
2019-04-27T13:01:50.461Z,88.80
2019-04-27T13:04:20.783Z,87.80
2019-04-27T13:06:51.011Z,90.30
2019-04-27T13:09:21.195Z,87.60
2019-04-27T13:11:51.404Z,86.70
2019-04-27T13:14:21.634Z,86.80
2019-04-27T13:16:51.858Z,91.60
2019-04-27T13:19:22.147Z,91.00
2019-04-27T13:21:52.285Z,88.20
2019-04-27T13:24:22.548Z,87.90
2019-04-27T13:26:52.753Z,88.10
2019-04-27T13:29:23.030Z,86.20
2019-04-27T13:31:53.233Z,86.00
2019-04-27T13:34:23.437Z,86.70
2019-04-27T13:36:54.114Z,85.90
2019-04-27T13:39:25.978Z,86.80
2019-04-27T13:41:56.589Z,86.00
2019-04-27T13:44:26.850Z,85.00
2019-04-27T13:47:17.712Z,85.40
2019-04-27T13:50:12.850Z,85.50
2019-04-27T13:52:43.290Z,83.30
2019-04-27T13:55:15.848Z,83.00
2019-04-27T13:57:50.294Z,83.10
2019-04-27T14:00:18.461Z,83.50
2019-04-27T14:02:48.681Z,84.00
2019-04-27T14:05:18.966Z,84.00
2019-04-27T14:07:49.454Z,84.40
2019-04-27T14:10:20.407Z,86.20
2019-04-27T14:12:50.966Z,91.60
2019-04-27T14:15:21.253Z,94.00
2019-04-27T14:17:51.584Z,93.40
2019-04-27T14:20:21.862Z,96.50
2019-04-27T14:22:53.685Z,97.40
2019-04-27T14:25:24.001Z,98.70
2019-04-27T14:27:54.204Z,99.90
2019-04-27T14:30:24.600Z,99.20
2019-04-27T14:32:55.018Z,98.10
2019-04-27T14:35:25.286Z,99.90
2019-04-27T14:37:55.587Z,99.00
2019-04-27T14:40:25.895Z,97.90
2019-04-27T14:42:56.402Z,94.30
2019-04-27T14:45:28.534Z,94.90
2019-04-27T14:47:58.564Z,92.90
2019-04-27T14:50:28.876Z,95.30
2019-04-27T14:52:59.242Z,95.80
2019-04-27T14:55:30.108Z,93.50
2019-04-27T14:58:01.094Z,93.00
2019-04-27T15:00:31.296Z,95.60
2019-04-27T15:03:01.629Z,97.60
2019-04-27T15:05:31.842Z,95.60
2019-04-27T15:08:06.460Z,97.50
2019-04-27T15:10:36.035Z,94.50
2019-04-27T15:13:07.931Z,95.00
2019-04-27T15:15:38.424Z,94.60
2019-04-27T15:18:09.675Z,95.80
2019-04-27T15:20:45.844Z,94.30
2019-04-27T15:23:15.160Z,94.30
2019-04-27T15:25:46.973Z,94.90
2019-04-27T15:28:20.438Z,94.80
2019-04-27T15:31:23.648Z,94.50
2019-04-27T15:34:23.317Z,94.10
2019-04-27T15:37:18.128Z,94.70
2019-04-27T15:40:25.291Z,94.00
2019-04-27T15:43:18.656Z,94.50
2019-04-27T15:45:48.967Z,94.80
2019-04-27T15:48:20.302Z,95.10
2019-04-27T15:50:50.581Z,93.90
2019-04-27T15:53:20.925Z,93.40
2019-04-27T15:55:53.621Z,93.70
2019-04-27T15:58:25.115Z,94.80
2019-04-27T16:00:56.417Z,93.90
2019-04-27T16:03:31.271Z,93.90
2019-04-27T16:06:03.342Z,94.90
2019-04-27T16:08:31.481Z,95.90
2019-04-27T16:11:01.835Z,95.40
2019-04-27T16:13:33.212Z,96.70
2019-04-27T16:16:04.056Z,96.00
2019-04-27T16:18:34.407Z,94.60
2019-04-27T16:21:07.098Z,94.40
2019-04-27T16:23:40.287Z,93.70
2019-04-27T16:26:10.919Z,94.20
2019-04-27T16:28:43.098Z,95.10
2019-04-27T16:31:12.614Z,94.40
2019-04-27T16:33:42.975Z,95.00
2019-04-27T16:36:13.335Z,93.70
2019-04-27T16:38:51.428Z,93.70
2019-04-27T16:41:21.656Z,94.10
2019-04-27T16:43:52.026Z,92.90
2019-04-27T16:46:22.738Z,91.80
2019-04-27T16:48:53.028Z,88.90
2019-04-27T16:51:23.292Z,87.80
2019-04-27T16:53:54.753Z,88.20
2019-04-27T16:56:25.358Z,86.60
2019-04-27T16:58:59.307Z,87.00
2019-04-27T17:01:30.473Z,85.30
2019-04-27T17:04:00.996Z,88.40
2019-04-27T17:06:31.283Z,86.90
2019-04-27T17:09:06.864Z,88.70
2019-04-27T17:11:33.706Z,91.70
2019-04-27T17:14:29.185Z,88.60
2019-04-27T17:17:17.860Z,88.50
2019-04-27T17:19:52.279Z,91.50
2019-04-27T17:22:22.680Z,89.20
2019-04-27T17:24:53.027Z,90.50
2019-04-27T17:27:31.880Z,91.10
2019-04-27T17:30:02.130Z,89.20
2019-04-27T17:32:39.162Z,90.30
2019-04-27T17:35:14.567Z,94.50
2019-04-27T17:37:41.279Z,94.90
2019-04-27T17:40:11.818Z,98.00
2019-04-27T17:42:42.139Z,99.20
2019-04-27T17:45:12.831Z,98.90
2019-04-27T17:47:43.028Z,98.60
2019-04-27T17:50:18.442Z,94.90
2019-04-27T17:52:54.591Z,94.80
2019-04-27T17:55:24.246Z,94.70
2019-04-27T17:57:51.737Z,99.20
2019-04-27T18:00:22.282Z,97.40
2019-04-27T18:02:52.561Z,99.90
2019-04-27T18:05:22.936Z,97.00
2019-04-27T18:07:53.588Z,95.60
2019-04-27T18:10:24.428Z,94.20
2019-04-27T18:12:54.899Z,99.80
2019-04-27T18:15:25.072Z,99.30
2019-04-27T18:17:58.467Z,99.90
2019-04-27T18:20:28.993Z,95.60
2019-04-27T18:23:10.659Z,98.50
2019-04-27T18:25:44.117Z,96.40
2019-04-27T18:28:19.038Z,96.10
2019-04-27T18:31:03.380Z,98.30
2019-04-27T18:33:37.206Z,99.90
2019-04-27T18:36:11.653Z,97.60
2019-04-27T18:38:39.173Z,99.20
2019-04-27T18:41:11.792Z,96.40
2019-04-27T18:43:46.448Z,99.90
2019-04-27T18:46:14.993Z,99.90
2019-04-27T18:49:04.811Z,99.90
2019-04-27T18:51:44.462Z,99.90
2019-04-27T18:54:14.677Z,97.00
2019-04-27T18:56:45.088Z,99.10
2019-04-27T18:59:15.358Z,99.90
2019-04-27T19:01:45.612Z,96.40
2019-04-27T19:04:15.973Z,94.40
2019-04-27T19:06:46.365Z,96.50
2019-04-27T19:09:18.658Z,97.80
2019-04-27T19:11:56.126Z,98.90
2019-04-27T19:14:21.053Z,99.30
2019-04-27T19:16:51.409Z,99.90
2019-04-27T19:19:21.833Z,96.90
2019-04-27T19:21:52.037Z,95.80
2019-04-27T19:24:22.402Z,94.70
2019-04-27T19:27:18.067Z,96.70
2019-04-27T19:29:48.593Z,96.10
2019-04-27T19:32:19.051Z,97.90
2019-04-27T19:34:49.418Z,95.70
2019-04-27T19:37:19.583Z,93.60
2019-04-27T19:39:49.977Z,93.10
2019-04-27T19:42:20.585Z,95.90
2019-04-27T19:44:50.883Z,92.90
2019-04-27T19:47:21.139Z,92.60
2019-04-27T19:49:51.423Z,94.10
2019-04-27T19:52:22.800Z,92.90
2019-04-27T19:54:53.220Z,92.50
2019-04-27T19:57:33.157Z,93.30
2019-04-27T19:59:58.946Z,92.90
2019-04-27T20:02:29.391Z,95.80
2019-04-27T20:05:03.288Z,94.10
2019-04-27T20:07:33.610Z,93.20
2019-04-27T20:10:05.843Z,94.20
2019-04-27T20:12:36.200Z,94.20
2019-04-27T20:15:07.215Z,94.00
2019-04-27T20:17:37.529Z,95.10
2019-04-27T20:20:08.168Z,93.20
2019-04-27T20:22:38.467Z,96.40
2019-04-27T20:25:09.099Z,95.40
2019-04-27T20:27:46.893Z,95.80
2019-04-27T20:30:13.319Z,94.60
2019-04-27T20:32:43.535Z,95.30
2019-04-27T20:35:13.788Z,94.70
2019-04-27T20:37:44.003Z,94.70
2019-04-27T20:40:14.323Z,97.80
2019-04-27T20:42:44.597Z,93.30
2019-04-27T20:45:15.314Z,94.70
2019-04-27T20:47:45.482Z,95.20
2019-04-27T20:50:15.769Z,98.30
2019-04-27T20:52:54.285Z,97.60
2019-04-27T20:55:24.621Z,99.90
2019-04-27T20:58:01.835Z,97.80
2019-04-27T21:00:26.987Z,99.90
2019-04-27T21:03:15.937Z,98.50
2019-04-27T21:06:03.816Z,96.90
2019-04-27T21:08:35.928Z,94.80
2019-04-27T21:11:06.174Z,94.40
2019-04-27T21:13:36.447Z,95.70
2019-04-27T21:16:06.684Z,93.90
2019-04-27T21:18:37.015Z,94.70
2019-04-27T21:21:07.289Z,95.50
2019-04-27T21:23:37.568Z,95.40
2019-04-27T21:26:07.944Z,97.20
2019-04-27T21:28:38.150Z,98.60
2019-04-27T21:31:08.865Z,96.70
2019-04-27T21:33:40.777Z,99.90
2019-04-27T21:36:11.732Z,96.00
2019-04-27T21:38:43.004Z,99.90
2019-04-27T21:41:13.512Z,99.90
2019-04-27T21:43:43.913Z,98.70
2019-04-27T21:46:14.275Z,99.70
2019-04-27T21:48:44.547Z,99.90
2019-04-27T21:51:14.874Z,99.90
2019-04-27T21:53:58.959Z,99.90
2019-04-27T21:56:31.148Z,99.60
2019-04-27T21:59:01.260Z,98.60
2019-04-27T22:01:33.369Z,99.90
2019-04-27T22:04:04.207Z,99.90
2019-04-27T22:06:34.375Z,99.90
2019-04-27T22:09:09.129Z,97.60
2019-04-27T22:11:40.875Z,99.90
2019-04-27T22:14:11.832Z,99.90
2019-04-27T22:16:42.357Z,99.90
2019-04-27T22:19:12.681Z,99.90
2019-04-27T22:21:43.060Z,99.90
2019-04-27T22:24:19.125Z,99.90
2019-04-27T22:26:49.355Z,99.20
2019-04-27T22:29:19.680Z,97.70
2019-04-27T22:31:51.578Z,99.90
2019-04-27T22:34:22.771Z,99.80
2019-04-27T22:36:53.260Z,99.40
2019-04-27T22:39:30.876Z,98.50
2019-04-27T22:42:35.025Z,99.90
2019-04-27T22:45:16.951Z,99.90
2019-04-27T22:47:47.269Z,99.90
2019-04-27T22:50:17.460Z,99.90
2019-04-27T22:52:47.817Z,99.90
2019-04-27T22:55:18.158Z,99.90
2019-04-27T22:58:07.381Z,99.90
2019-04-27T23:00:51.382Z,99.90
2019-04-27T23:03:25.228Z,99.90
2019-04-27T23:05:55.459Z,99.90
2019-04-27T23:08:25.692Z,99.90
2019-04-27T23:10:56.059Z,99.90
2019-04-27T23:13:26.261Z,99.90
2019-04-27T23:15:58.329Z,99.90
2019-04-27T23:18:28.650Z,99.90
2019-04-27T23:20:58.979Z,99.90
2019-04-27T23:23:30.904Z,99.90
2019-04-27T23:26:01.883Z,99.90
2019-04-27T23:28:32.302Z,99.90
2019-04-27T23:31:08.135Z,99.90
2019-04-27T23:33:42.167Z,99.90
2019-04-27T23:36:12.573Z,99.90
2019-04-27T23:38:42.860Z,99.90
2019-04-27T23:41:13.140Z,99.90
2019-04-27T23:43:43.487Z,99.90
2019-04-27T23:46:13.812Z,99.90
2019-04-27T23:48:44.120Z,99.90
2019-04-27T23:51:33.427Z,99.90
2019-04-27T23:54:03.804Z,99.90
2019-04-27T23:56:34.011Z,99.90
2019-04-27T23:59:04.418Z,99.90
